createdAt,value
2022-11-21T00:02:39.447Z,45.40
2022-11-21T00:07:41.909Z,43.78
2022-11-21T00:12:45.714Z,43.92
2022-11-21T00:17:48.220Z,44.05
2022-11-21T00:22:50.830Z,42.58
2022-11-21T00:27:54.699Z,39.85
2022-11-21T00:32:58.833Z,43.22
2022-11-21T00:38:01.236Z,42.95
2022-11-21T00:43:04.986Z,44.08
2022-11-21T00:53:09.612Z,39.13
2022-11-21T00:58:13.358Z,46.50
2022-11-21T01:03:15.809Z,45.92
2022-11-21T01:08:18.138Z,44.35
2022-11-21T01:13:21.897Z,43.90
2022-11-21T01:18:24.337Z,46.05
2022-11-21T01:23:26.741Z,43.15
2022-11-21T01:28:30.660Z,47.13
2022-11-21T01:33:33.212Z,44.88
2022-11-21T01:38:35.697Z,43.53
2022-11-21T01:43:39.641Z,46.40
2022-11-21T01:48:45.657Z,41.95
2022-11-21T01:53:50.758Z,46.17
2022-11-21T01:58:57.123Z,50.65
2022-11-21T02:04:00.775Z,45.78
2022-11-21T02:14:06.795Z,43.42
2022-11-21T02:19:11.532Z,49.40
2022-11-21T02:24:17.713Z,48.00
2022-11-21T02:29:21.539Z,49.10
2022-11-21T02:34:23.975Z,45.58
2022-11-21T02:39:28.270Z,48.78
2022-11-21T02:44:34.669Z,50.85
2022-11-21T02:49:41.684Z,49.92
2022-11-21T02:54:44.106Z,50.67
2022-11-21T02:59:48.015Z,53.35
2022-11-21T03:09:52.649Z,50.72
2022-11-21T03:14:56.377Z,51.63
2022-11-21T03:25:01.236Z,47.13
2022-11-21T03:30:05.406Z,49.67
2022-11-21T03:35:08.260Z,47.60
2022-11-21T03:40:11.794Z,50.70
2022-11-21T03:50:20.854Z,44.65
2022-11-21T03:55:23.411Z,43.92
2022-11-21T04:00:25.834Z,53.45
2022-11-21T04:05:29.602Z,43.97
2022-11-21T04:15:34.239Z,46.83
2022-11-21T04:20:38.300Z,48.08
2022-11-21T04:25:40.975Z,60.88
2022-11-21T04:30:43.353Z,55.72
2022-11-21T04:35:47.847Z,64.13
2022-11-21T04:40:50.258Z,96.63
2022-11-21T04:45:52.791Z,88.82
2022-11-21T04:50:56.597Z,55.63
2022-11-21T04:56:00.098Z,68.78
2022-11-21T05:01:06.630Z,66.28
2022-11-21T05:06:10.487Z,63.60
2022-11-21T05:11:30.446Z,53.92
2022-11-21T05:16:33.404Z,53.05
2022-11-21T05:21:37.171Z,54.63
2022-11-21T05:26:39.566Z,66.28
2022-11-21T05:31:42.012Z,45.45
2022-11-21T05:36:45.877Z,49.42
2022-11-21T05:41:48.277Z,51.78
2022-11-21T05:46:50.741Z,68.22
2022-11-21T05:51:54.621Z,50.50
2022-11-21T05:56:57.072Z,54.50
2022-11-21T06:02:17.117Z,48.63
2022-11-21T06:07:20.889Z,60.50
2022-11-21T06:12:25.587Z,54.83
2022-11-21T06:17:28.349Z,62.47
2022-11-21T06:22:32.391Z,79.07
2022-11-21T06:27:34.825Z,52.17
2022-11-21T06:32:37.890Z,58.50
2022-11-21T06:37:41.649Z,48.60
2022-11-21T06:42:45.189Z,41.20
2022-11-21T06:47:47.688Z,53.97
2022-11-21T06:52:51.455Z,42.08
2022-11-21T07:03:01.624Z,56.78
2022-11-21T07:08:12.936Z,49.15
2022-11-21T07:13:24.839Z,56.65
2022-11-21T07:18:27.583Z,63.70
2022-11-21T07:23:31.698Z,38.67
2022-11-21T07:28:34.661Z,69.10
2022-11-21T07:33:37.384Z,53.10
2022-11-21T07:38:42.097Z,59.00
2022-11-21T07:43:44.767Z,55.22
2022-11-21T07:48:47.152Z,65.47
2022-11-21T07:53:50.930Z,38.97
2022-11-21T07:58:53.351Z,62.25
2022-11-21T08:03:55.824Z,45.33
2022-11-21T08:08:59.585Z,43.95
2022-11-21T08:14:01.985Z,47.95
2022-11-21T08:19:04.416Z,57.50
2022-11-21T08:24:13.468Z,36.40
2022-11-21T08:29:16.390Z,42.40
2022-11-21T08:34:18.750Z,49.70
2022-11-21T08:39:22.505Z,38.72
2022-11-21T08:44:24.974Z,47.15
2022-11-21T08:49:27.599Z,43.88
2022-11-21T08:54:31.481Z,41.00
2022-11-21T08:59:33.906Z,41.10
2022-11-21T09:04:36.260Z,31.98
2022-11-21T09:09:40.133Z,30.98
2022-11-21T09:15:00.154Z,32.30
2022-11-21T09:20:02.736Z,29.40
2022-11-21T09:25:07.054Z,27.45
2022-11-21T09:30:09.931Z,28.58
2022-11-21T09:35:12.327Z,27.83
2022-11-21T09:40:17.252Z,25.25
2022-11-21T09:45:22.877Z,23.40
2022-11-21T09:50:27.797Z,23.75
2022-11-21T09:55:33.754Z,24.40
2022-11-21T10:00:36.257Z,23.38
2022-11-21T10:05:42.316Z,23.35
2022-11-21T10:10:54.220Z,23.80
2022-11-21T10:15:59.242Z,22.55
2022-11-21T10:21:04.139Z,21.17
2022-11-21T10:26:15.341Z,22.77
2022-11-21T10:31:18.598Z,22.75
2022-11-21T10:36:26.850Z,21.52
2022-11-21T10:41:38.249Z,22.92
2022-11-21T10:46:40.714Z,23.52
2022-11-21T10:51:47.162Z,22.40
2022-11-21T10:56:51.612Z,21.13
2022-11-21T11:01:57.949Z,25.40
2022-11-21T11:07:14.444Z,29.52
2022-11-21T11:12:46.901Z,26.88
2022-11-21T11:17:54.007Z,21.73
2022-11-21T11:22:56.351Z,25.52
2022-11-21T11:28:00.383Z,24.83
2022-11-21T11:33:02.766Z,26.38
2022-11-21T11:38:05.877Z,29.50
2022-11-21T11:43:32.541Z,30.35
2022-11-21T11:48:56.276Z,31.17
2022-11-21T11:54:01.429Z,32.83
2022-11-21T11:59:08.270Z,32.95
2022-11-21T12:04:13.130Z,31.80
2022-11-21T12:09:18.122Z,39.03
2022-11-21T12:15:02.073Z,40.17
2022-11-21T12:20:12.969Z,40.65
2022-11-21T12:25:15.517Z,43.17
2022-11-21T12:30:33.600Z,44.03
2022-11-21T12:35:51.828Z,43.95
2022-11-21T12:40:59.673Z,44.35
2022-11-21T12:46:05.793Z,46.78
2022-11-21T12:51:38.606Z,46.42
2022-11-21T12:56:44.221Z,46.60
2022-11-21T13:01:51.045Z,46.15
2022-11-21T13:06:56.023Z,48.58
2022-11-21T13:12:01.202Z,47.45
2022-11-21T13:17:12.157Z,48.67
2022-11-21T13:22:33.014Z,50.90
2022-11-21T13:27:39.183Z,56.75
2022-11-21T13:32:42.435Z,52.72
2022-11-21T13:38:00.866Z,51.13
2022-11-21T13:43:33.241Z,49.65
2022-11-21T13:48:44.382Z,50.05
2022-11-21T13:53:58.423Z,51.95
2022-11-21T13:59:07.635Z,55.85
2022-11-21T14:04:18.987Z,52.42
2022-11-21T14:09:26.260Z,49.17
2022-11-21T14:14:32.706Z,48.97
2022-11-21T14:19:35.172Z,48.35
2022-11-21T14:24:40.041Z,45.60
2022-11-21T14:29:43.788Z,47.80
2022-11-21T14:34:47.092Z,49.53
2022-11-21T14:39:56.501Z,50.15
2022-11-21T14:45:08.232Z,49.45
2022-11-21T14:50:22.698Z,49.97
2022-11-21T14:55:31.338Z,50.70
2022-11-21T15:06:05.138Z,53.57
2022-11-21T15:11:09.471Z,55.90
2022-11-21T15:16:13.530Z,57.63
2022-11-21T15:21:16.818Z,58.67
2022-11-21T15:26:30.197Z,61.35
2022-11-21T15:31:34.267Z,59.05
2022-11-21T15:36:36.697Z,58.45
2022-11-21T15:41:39.107Z,56.30
2022-11-21T15:46:42.973Z,55.53
2022-11-21T15:57:09.187Z,65.05
2022-11-21T16:02:14.414Z,70.00
2022-11-21T16:07:16.834Z,67.65
2022-11-21T16:12:19.333Z,69.15
2022-11-21T16:17:23.128Z,70.65
2022-11-21T16:22:25.623Z,70.25
2022-11-21T16:27:28.029Z,73.03
2022-11-21T16:32:31.877Z,70.47
2022-11-21T16:37:34.552Z,82.97
2022-11-21T16:42:36.991Z,65.60
2022-11-21T16:47:45.747Z,64.82
2022-11-21T16:52:50.908Z,62.08
2022-11-21T16:57:54.868Z,62.08
2022-11-21T17:02:58.601Z,62.80
2022-11-21T17:08:01.018Z,62.08
2022-11-21T17:13:03.399Z,58.90
2022-11-21T17:18:07.102Z,63.17
2022-11-21T17:23:09.495Z,65.93
2022-11-21T17:28:11.876Z,60.90
2022-11-21T17:33:15.680Z,56.38
2022-11-21T17:38:18.117Z,61.63
2022-11-21T17:43:20.516Z,76.30
2022-11-21T17:48:24.220Z,64.97
2022-11-21T17:53:26.565Z,68.20
2022-11-21T17:58:29.073Z,66.93
2022-11-21T18:03:33.202Z,62.95
2022-11-21T18:08:36.364Z,66.05
2022-11-21T18:13:39.424Z,61.72
2022-11-21T18:18:43.242Z,54.28
2022-11-21T18:23:46.958Z,55.30
2022-11-21T18:29:01.702Z,56.67
2022-11-21T18:34:13.653Z,60.08
2022-11-21T18:39:16.089Z,53.58
2022-11-21T18:44:22.253Z,56.13
2022-11-21T18:49:26.577Z,54.15
2022-11-21T18:54:29.078Z,50.65
2022-11-21T18:59:31.596Z,50.90
2022-11-21T19:04:35.413Z,50.60
2022-11-21T19:09:38.277Z,47.83
2022-11-21T19:14:41.031Z,49.90
2022-11-21T19:19:45.229Z,45.30
2022-11-21T19:24:48.115Z,48.42
2022-11-21T19:29:53.807Z,49.47
2022-11-21T19:34:57.550Z,48.10
2022-11-21T19:39:59.925Z,46.72
2022-11-21T19:45:02.328Z,42.45
2022-11-21T19:50:06.488Z,45.30
2022-11-21T19:55:09.275Z,41.70
2022-11-21T20:00:12.254Z,42.57
2022-11-21T20:05:16.094Z,40.57
2022-11-21T20:10:18.706Z,39.88
2022-11-21T20:15:21.093Z,40.20
2022-11-21T20:20:25.148Z,38.90
2022-11-21T20:25:27.521Z,38.22
2022-11-21T20:30:29.857Z,35.25
2022-11-21T20:35:33.552Z,36.38
2022-11-21T20:40:36.559Z,35.78
2022-11-21T20:52:19.658Z,32.22
2022-11-21T20:56:25.132Z,32.53
2022-11-21T21:01:27.798Z,29.10
2022-11-21T21:06:31.557Z,28.57
2022-11-21T21:16:56.120Z,23.13
2022-11-21T21:21:59.781Z,24.20
2022-11-21T21:27:02.197Z,23.23
2022-11-21T21:32:04.756Z,21.73
2022-11-21T21:37:08.523Z,20.98
2022-11-21T21:42:10.917Z,23.17
2022-11-21T21:47:16.059Z,19.75
2022-11-21T21:52:19.857Z,21.02
2022-11-21T21:57:22.241Z,20.95
2022-11-21T22:02:24.751Z,19.90
2022-11-21T22:07:28.535Z,20.98
2022-11-21T22:12:30.969Z,21.00
2022-11-21T22:17:33.296Z,19.55
2022-11-21T22:22:37.037Z,20.70
2022-11-21T22:27:39.719Z,19.63
2022-11-21T22:32:42.115Z,19.23
2022-11-21T22:37:45.794Z,21.58
2022-11-21T22:42:48.176Z,18.60
2022-11-21T22:47:50.544Z,19.63
2022-11-21T22:52:54.280Z,19.73
2022-11-21T22:57:56.671Z,18.35
2022-11-21T23:02:59.482Z,19.08
2022-11-21T23:08:04.189Z,18.30
2022-11-21T23:13:06.627Z,19.08
2022-11-21T23:18:09.973Z,19.00
2022-11-21T23:23:13.658Z,18.65
2022-11-21T23:33:18.350Z,17.52
2022-11-21T23:38:22.236Z,17.77
2022-11-21T23:43:24.643Z,16.13
2022-11-21T23:48:27.310Z,18.25
2022-11-21T23:53:31.004Z,17.43
2022-11-21T23:58:33.333Z,17.80
